Ofertas de vuelos a Natal

Encontranos en
En el mes de
SalidaRegresoDíasConexionesDisponibilidadDisp.
Jue 24/06/20212021-06-24Dom 04/07/20212021-07-0410ConexionesVer disponibilidad>06https://an.despegar.com/ad/1040?q=shop%2Fflights%2Fresults%2Froundtrip%2FBUE%2FNAT%2F2021-06-24%2F2021-07-04%2F1%2F0%2F0
Lun 26/07/20212021-07-26Jue 05/08/20212021-08-0510ConexionesVer disponibilidad>07https://an.despegar.com/ad/1040?q=shop%2Fflights%2Fresults%2Froundtrip%2FBUE%2FNAT%2F2021-07-26%2F2021-08-05%2F1%2F0%2F0
Mie 11/08/20212021-08-11Sab 21/08/20212021-08-2110ConexionesVer disponibilidad>08https://an.despegar.com/ad/1040?q=shop%2Fflights%2Fresults%2Froundtrip%2FBUE%2FNAT%2F2021-08-11%2F2021-08-21%2F1%2F0%2F0
Vie 27/08/20212021-08-27Lun 06/09/20212021-09-0610ConexionesVer disponibilidad>08https://an.despegar.com/ad/1040?q=shop%2Fflights%2Fresults%2Froundtrip%2FBUE%2FNAT%2F2021-08-27%2F2021-09-06%2F1%2F0%2F0
Dom 29/08/20212021-08-29Sab 11/09/20212021-09-1113ConexionesVer disponibilidad>08https://an.despegar.com/ad/1040?q=shop%2Fflights%2Fresults%2Froundtrip%2FBUE%2FNAT%2F2021-08-29%2F2021-09-11%2F1%2F0%2F0
Dom 29/08/20212021-08-29Vie 10/09/20212021-09-1012ConexionesVer disponibilidad>08https://an.despegar.com/ad/1040?q=shop%2Fflights%2Fresults%2Froundtrip%2FBUE%2FNAT%2F2021-08-29%2F2021-09-10%2F1%2F0%2F0
Vie 03/09/20212021-09-03Vie 24/09/20212021-09-2421ConexionesVer disponibilidad>09https://an.despegar.com/ad/1040?q=shop%2Fflights%2Fresults%2Froundtrip%2FBUE%2FNAT%2F2021-09-03%2F2021-09-24%2F1%2F0%2F0
Lun 06/09/20212021-09-06Jue 23/09/20212021-09-2317ConexionesVer disponibilidad>09https://an.despegar.com/ad/1040?q=shop%2Fflights%2Fresults%2Froundtrip%2FBUE%2FNAT%2F2021-09-06%2F2021-09-23%2F1%2F0%2F0
Dom 12/09/20212021-09-12Mie 22/09/20212021-09-2210ConexionesVer disponibilidad>09https://an.despegar.com/ad/1040?q=shop%2Fflights%2Fresults%2Froundtrip%2FBUE%2FNAT%2F2021-09-12%2F2021-09-22%2F1%2F0%2F0
Lun 27/09/20212021-09-27Vie 08/10/20212021-10-0811ConexionesVer disponibilidad>09https://an.despegar.com/ad/1040?q=shop%2Fflights%2Fresults%2Froundtrip%2FBUE%2FNAT%2F2021-09-27%2F2021-10-08%2F1%2F0%2F0
Mar 28/09/20212021-09-28Vie 08/10/20212021-10-0810ConexionesVer disponibilidad>09https://an.despegar.com/ad/1040?q=shop%2Fflights%2Fresults%2Froundtrip%2FBUE%2FNAT%2F2021-09-28%2F2021-10-08%2F1%2F0%2F0
Jue 07/10/20212021-10-07Sab 16/10/20212021-10-169ConexionesVer disponibilidad>10https://an.despegar.com/ad/1040?q=shop%2Fflights%2Fresults%2Froundtrip%2FBUE%2FNAT%2F2021-10-07%2F2021-10-16%2F1%2F0%2F0
Jue 07/10/20212021-10-07Jue 14/10/20212021-10-147ConexionesVer disponibilidad>10https://an.despegar.com/ad/1040?q=shop%2Fflights%2Fresults%2Froundtrip%2FBUE%2FNAT%2F2021-10-07%2F2021-10-14%2F1%2F0%2F0
Dom 10/10/20212021-10-10Dom 24/10/20212021-10-2414ConexionesVer disponibilidad>10https://an.despegar.com/ad/1040?q=shop%2Fflights%2Fresults%2Froundtrip%2FBUE%2FNAT%2F2021-10-10%2F2021-10-24%2F1%2F0%2F0
Jue 14/10/20212021-10-14Dom 24/10/20212021-10-2410ConexionesVer disponibilidad>10https://an.despegar.com/ad/1040?q=shop%2Fflights%2Fresults%2Froundtrip%2FBUE%2FNAT%2F2021-10-14%2F2021-10-24%2F1%2F0%2F0
Sab 30/10/20212021-10-30Mar 09/11/20212021-11-0910ConexionesVer disponibilidad>10https://an.despegar.com/ad/1040?q=shop%2Fflights%2Fresults%2Froundtrip%2FBUE%2FNAT%2F2021-10-30%2F2021-11-09%2F1%2F0%2F0
Lun 15/11/20212021-11-15Jue 25/11/20212021-11-2510ConexionesVer disponibilidad>11https://an.despegar.com/ad/1040?q=shop%2Fflights%2Fresults%2Froundtrip%2FBUE%2FNAT%2F2021-11-15%2F2021-11-25%2F1%2F0%2F0
Dom 21/11/20212021-11-21Mar 30/11/20212021-11-309ConexionesVer disponibilidad>11https://an.despegar.com/ad/1040?q=shop%2Fflights%2Fresults%2Froundtrip%2FBUE%2FNAT%2F2021-11-21%2F2021-11-30%2F1%2F0%2F0
Mie 01/12/20212021-12-01Sab 11/12/20212021-12-1110ConexionesVer disponibilidad>12https://an.despegar.com/ad/1040?q=shop%2Fflights%2Fresults%2Froundtrip%2FBUE%2FNAT%2F2021-12-01%2F2021-12-11%2F1%2F0%2F0
Vie 17/12/20212021-12-17Lun 27/12/20212021-12-2710ConexionesVer disponibilidad>12https://an.despegar.com/ad/1040?q=shop%2Fflights%2Fresults%2Froundtrip%2FBUE%2FNAT%2F2021-12-17%2F2021-12-27%2F1%2F0%2F0
Dom 26/12/20212021-12-26Vie 07/01/20222022-01-0712ConexionesVer disponibilidad>12https://an.despegar.com/ad/1040?q=shop%2Fflights%2Fresults%2Froundtrip%2FBUE%2FNAT%2F2021-12-26%2F2022-01-07%2F1%2F0%2F0
Sab 01/01/20222022-01-01Sab 29/01/20222022-01-2928ConexionesVer disponibilidad>01https://an.despegar.com/ad/1040?q=shop%2Fflights%2Fresults%2Froundtrip%2FBUE%2FNAT%2F2022-01-01%2F2022-01-29%2F1%2F0%2F0
Dom 02/01/20222022-01-02Mie 12/01/20222022-01-1210ConexionesVer disponibilidad>01https://an.despegar.com/ad/1040?q=shop%2Fflights%2Fresults%2Froundtrip%2FBUE%2FNAT%2F2022-01-02%2F2022-01-12%2F1%2F0%2F0
Sab 15/01/20222022-01-15Mar 25/01/20222022-01-2510ConexionesVer disponibilidad>01https://an.despegar.com/ad/1040?q=shop%2Fflights%2Fresults%2Froundtrip%2FBUE%2FNAT%2F2022-01-15%2F2022-01-25%2F1%2F0%2F0
Mar 18/01/20222022-01-18Vie 28/01/20222022-01-2810ConexionesVer disponibilidad>01https://an.despegar.com/ad/1040?q=shop%2Fflights%2Fresults%2Froundtrip%2FBUE%2FNAT%2F2022-01-18%2F2022-01-28%2F1%2F0%2F0

Es posible que la disponibilidad de vuelos hacia este destino se vea afectada debido al COVID-19. Si es tu caso, te invitamos a realizar una nueva búsqueda a través de este link.

Asistencia al viajero

Cotiza tu ASSIST CARD

Origen
Destino

Información general sobre Natal

Natal, que en español significa Navidad, es una ciudad brasileña localizada en el estado de Rio Grande do Norte. Atravesada por el río Potengi, la capital nordestina cuenta con playas, dunas y diferentes atracciones históricas. Anualmente recibe a dos millones de turistas y es la puerta de entrada hacia otros importantes destinos del estado.

Pasajes Aéreos y Vuelos Baratos a Natal

Descargá gratis nuestra nueva app para Android y iOS.
Suscribite a las notificaciones de Chrome y Safari.
Seguinos en Facebook, Twitter e Instagram
Suscribite a nuestro newsletter aquí.